sensor_id;sensor_type;location;lat;lon;timestamp;P1;durP1;ratioP1;P2;durP2;ratioP2
28529;SDS011;15737;49.760;6.632;2022-12-18T00:02:05;1.90;;;1.40;;
28529;SDS011;15737;49.760;6.632;2022-12-18T00:04:31;1.87;;;1.70;;
28529;SDS011;15737;49.760;6.632;2022-12-18T00:06:57;0.53;;;0.53;;
28529;SDS011;15737;49.760;6.632;2022-12-18T00:09:22;3.20;;;0.37;;
28529;SDS011;15737;49.760;6.632;2022-12-18T00:11:51;5.00;;;2.10;;
28529;SDS011;15737;49.760;6.632;2022-12-18T00:14:16;1.80;;;1.60;;
28529;SDS011;15737;49.760;6.632;2022-12-18T00:16:45;1.23;;;1.23;;
28529;SDS011;15737;49.760;6.632;2022-12-18T00:20:09;0.50;;;0.50;;
28529;SDS011;15737;49.760;6.632;2022-12-18T00:22:34;0.70;;;0.60;;
28529;SDS011;15737;49.760;6.632;2022-12-18T00:25:00;0.13;;;0.13;;
28529;SDS011;15737;49.760;6.632;2022-12-18T00:27:25;3.07;;;2.80;;
28529;SDS011;15737;49.760;6.632;2022-12-18T00:29:51;1.37;;;1.27;;
28529;SDS011;15737;49.760;6.632;2022-12-18T00:32:16;1.83;;;1.73;;
28529;SDS011;15737;49.760;6.632;2022-12-18T00:34:42;1.60;;;1.40;;
28529;SDS011;15737;49.760;6.632;2022-12-18T00:37:08;3.37;;;2.07;;
28529;SDS011;15737;49.760;6.632;2022-12-18T00:39:34;11.23;;;1.90;;
28529;SDS011;15737;49.760;6.632;2022-12-18T00:41:59;1.33;;;1.27;;
28529;SDS011;15737;49.760;6.632;2022-12-18T00:44:43;1.13;;;1.13;;
28529;SDS011;15737;49.760;6.632;2022-12-18T00:47:09;1.63;;;1.53;;
28529;SDS011;15737;49.760;6.632;2022-12-18T00:49:34;2.20;;;2.03;;
28529;SDS011;15737;49.760;6.632;2022-12-18T00:52:00;1.60;;;1.20;;
28529;SDS011;15737;49.760;6.632;2022-12-18T00:54:25;3.37;;;1.50;;
28529;SDS011;15737;49.760;6.632;2022-12-18T00:56:51;0.47;;;0.47;;
28529;SDS011;15737;49.760;6.632;2022-12-18T00:59:17;2.20;;;1.30;;
28529;SDS011;15737;49.760;6.632;2022-12-18T01:01:42;1.13;;;0.47;;
28529;SDS011;15737;49.760;6.632;2022-12-18T01:04:08;0.67;;;0.67;;
28529;SDS011;15737;49.760;6.632;2022-12-18T01:06:34;2.40;;;1.03;;
28529;SDS011;15737;49.760;6.632;2022-12-18T01:08:59;2.13;;;1.57;;
28529;SDS011;15737;49.760;6.632;2022-12-18T01:13:59;6.00;;;2.23;;
28529;SDS011;15737;49.760;6.632;2022-12-18T01:16:25;3.80;;;1.93;;
28529;SDS011;15737;49.760;6.632;2022-12-18T01:18:56;1.20;;;1.10;;
28529;SDS011;15737;49.760;6.632;2022-12-18T01:22:25;2.03;;;1.87;;
28529;SDS011;15737;49.760;6.632;2022-12-18T01:24:50;5.33;;;3.37;;
28529;SDS011;15737;49.760;6.632;2022-12-18T01:27:16;2.40;;;2.20;;
28529;SDS011;15737;49.760;6.632;2022-12-18T01:29:41;2.23;;;1.80;;
28529;SDS011;15737;49.760;6.632;2022-12-18T01:32:07;4.90;;;2.13;;
28529;SDS011;15737;49.760;6.632;2022-12-18T01:34:34;1.17;;;1.17;;
28529;SDS011;15737;49.760;6.632;2022-12-18T01:37:02;1.33;;;0.80;;
28529;SDS011;15737;49.760;6.632;2022-12-18T01:39:28;7.00;;;2.20;;
28529;SDS011;15737;49.760;6.632;2022-12-18T01:41:53;2.63;;;1.50;;
28529;SDS011;15737;49.760;6.632;2022-12-18T01:53:19;0.20;;;0.20;;
28529;SDS011;15737;49.760;6.632;2022-12-18T01:55:53;0.13;;;0.13;;
28529;SDS011;15737;49.760;6.632;2022-12-18T01:58:23;2.13;;;1.93;;
28529;SDS011;15737;49.760;6.632;2022-12-18T02:01:00;8.57;;;2.33;;
28529;SDS011;15737;49.760;6.632;2022-12-18T02:03:26;1.03;;;0.40;;
28529;SDS011;15737;49.760;6.632;2022-12-18T02:06:00;0.40;;;0.40;;
28529;SDS011;15737;49.760;6.632;2022-12-18T02:14:11;1.13;;;1.03;;
28529;SDS011;15737;49.760;6.632;2022-12-18T02:16:59;7.40;;;2.93;;
28529;SDS011;15737;49.760;6.632;2022-12-18T02:19:54;6.13;;;2.07;;
28529;SDS011;15737;49.760;6.632;2022-12-18T02:23:01;3.40;;;1.53;;
28529;SDS011;15737;49.760;6.632;2022-12-18T02:28:47;1.40;;;1.30;;
28529;SDS011;15737;49.760;6.632;2022-12-18T02:31:16;1.27;;;1.17;;
28529;SDS011;15737;49.760;6.632;2022-12-18T02:33:46;0.33;;;0.33;;
28529;SDS011;15737;49.760;6.632;2022-12-18T02:36:13;0.47;;;0.47;;
28529;SDS011;15737;49.760;6.632;2022-12-18T02:38:41;0.47;;;0.47;;
28529;SDS011;15737;49.760;6.632;2022-12-18T02:43:46;1.70;;;0.97;;
28529;SDS011;15737;49.760;6.632;2022-12-18T02:46:48;2.93;;;2.37;;
28529;SDS011;15737;49.760;6.632;2022-12-18T02:49:12;2.33;;;1.23;;
28529;SDS011;15737;49.760;6.632;2022-12-18T02:51:49;3.07;;;1.60;;
28529;SDS011;15737;49.760;6.632;2022-12-18T02:54:24;0.20;;;0.20;;
28529;SDS011;15737;49.760;6.632;2022-12-18T02:56:59;0.10;;;0.10;;
28529;SDS011;15737;49.760;6.632;2022-12-18T03:00:18;2.37;;;1.50;;
28529;SDS011;15737;49.760;6.632;2022-12-18T03:02:29;0.30;;;0.30;;
28529;SDS011;15737;49.760;6.632;2022-12-18T03:05:43;3.23;;;2.13;;
28529;SDS011;15737;49.760;6.632;2022-12-18T03:08:03;2.73;;;2.10;;
28529;SDS011;15737;49.760;6.632;2022-12-18T03:10:34;2.47;;;1.53;;
28529;SDS011;15737;49.760;6.632;2022-12-18T03:13:06;2.23;;;1.23;;
28529;SDS011;15737;49.760;6.632;2022-12-18T03:15:37;0.10;;;0.10;;
28529;SDS011;15737;49.760;6.632;2022-12-18T03:18:14;1.30;;;0.73;;
28529;SDS011;15737;49.760;6.632;2022-12-18T03:20:44;1.20;;;0.70;;
28529;SDS011;15737;49.760;6.632;2022-12-18T03:23:13;0.70;;;0.70;;
28529;SDS011;15737;49.760;6.632;2022-12-18T03:25:43;9.00;;;2.13;;
28529;SDS011;15737;49.760;6.632;2022-12-18T03:28:11;0.50;;;0.50;;
28529;SDS011;15737;49.760;6.632;2022-12-18T03:30:40;6.07;;;1.60;;
28529;SDS011;15737;49.760;6.632;2022-12-18T03:33:10;6.03;;;1.87;;
28529;SDS011;15737;49.760;6.632;2022-12-18T03:35:43;3.13;;;2.27;;
28529;SDS011;15737;49.760;6.632;2022-12-18T03:38:09;0.93;;;0.93;;
28529;SDS011;15737;49.760;6.632;2022-12-18T03:40:41;0.90;;;0.90;;
28529;SDS011;15737;49.760;6.632;2022-12-18T03:46:27;1.00;;;0.93;;
28529;SDS011;15737;49.760;6.632;2022-12-18T03:49:08;0.10;;;0.10;;
28529;SDS011;15737;49.760;6.632;2022-12-18T03:51:37;1.70;;;1.30;;
28529;SDS011;15737;49.760;6.632;2022-12-18T03:54:07;1.13;;;0.83;;
28529;SDS011;15737;49.760;6.632;2022-12-18T03:56:57;1.30;;;0.93;;
28529;SDS011;15737;49.760;6.632;2022-12-18T04:00:41;0.43;;;0.20;;
28529;SDS011;15737;49.760;6.632;2022-12-18T04:03:08;2.03;;;1.53;;
28529;SDS011;15737;49.760;6.632;2022-12-18T04:05:35;7.83;;;3.03;;
28529;SDS011;15737;49.760;6.632;2022-12-18T04:08:02;4.53;;;1.77;;
28529;SDS011;15737;49.760;6.632;2022-12-18T04:10:28;8.03;;;3.77;;
28529;SDS011;15737;49.760;6.632;2022-12-18T04:12:57;2.57;;;2.17;;
28529;SDS011;15737;49.760;6.632;2022-12-18T04:15:23;0.67;;;0.60;;
28529;SDS011;15737;49.760;6.632;2022-12-18T04:17:49;2.97;;;2.77;;
28529;SDS011;15737;49.760;6.632;2022-12-18T04:20:15;1.03;;;0.90;;
28529;SDS011;15737;49.760;6.632;2022-12-18T04:27:47;0.37;;;0.37;;
28529;SDS011;15737;49.760;6.632;2022-12-18T04:30:12;0.73;;;0.73;;
28529;SDS011;15737;49.760;6.632;2022-12-18T04:32:38;0.53;;;0.53;;
28529;SDS011;15737;49.760;6.632;2022-12-18T04:35:03;1.00;;;1.00;;
28529;SDS011;15737;49.760;6.632;2022-12-18T04:37:31;1.40;;;0.90;;
28529;SDS011;15737;49.760;6.632;2022-12-18T04:41:02;0.90;;;0.77;;
28529;SDS011;15737;49.760;6.632;2022-12-18T04:43:54;0.00;;;0.00;;
28529;SDS011;15737;49.760;6.632;2022-12-18T04:46:19;0.43;;;0.43;;
28529;SDS011;15737;49.760;6.632;2022-12-18T04:48:45;0.93;;;0.90;;
28529;SDS011;15737;49.760;6.632;2022-12-18T04:51:11;3.07;;;1.97;;
28529;SDS011;15737;49.760;6.632;2022-12-18T04:53:37;0.47;;;0.47;;
28529;SDS011;15737;49.760;6.632;2022-12-18T04:56:04;0.80;;;0.80;;
28529;SDS011;15737;49.760;6.632;2022-12-18T04:58:32;0.00;;;0.00;;
28529;SDS011;15737;49.760;6.632;2022-12-18T05:01:21;0.90;;;0.90;;
28529;SDS011;15737;49.760;6.632;2022-12-18T05:03:46;2.03;;;1.80;;
28529;SDS011;15737;49.760;6.632;2022-12-18T05:06:12;2.47;;;2.27;;
28529;SDS011;15737;49.760;6.632;2022-12-18T05:08:37;1.70;;;1.00;;
28529;SDS011;15737;49.760;6.632;2022-12-18T05:11:04;4.60;;;2.50;;
28529;SDS011;15737;49.760;6.632;2022-12-18T05:13:33;1.03;;;1.03;;
28529;SDS011;15737;49.760;6.632;2022-12-18T05:16:18;5.10;;;3.03;;
28529;SDS011;15737;49.760;6.632;2022-12-18T05:25:03;3.20;;;2.67;;
28529;SDS011;15737;49.760;6.632;2022-12-18T05:27:29;5.00;;;0.83;;
28529;SDS011;15737;49.760;6.632;2022-12-18T05:29:54;2.33;;;2.00;;
28529;SDS011;15737;49.760;6.632;2022-12-18T05:32:20;0.53;;;0.53;;
28529;SDS011;15737;49.760;6.632;2022-12-18T05:34:45;0.50;;;0.50;;
28529;SDS011;15737;49.760;6.632;2022-12-18T05:37:11;0.00;;;0.00;;
28529;SDS011;15737;49.760;6.632;2022-12-18T05:39:37;1.90;;;1.80;;
28529;SDS011;15737;49.760;6.632;2022-12-18T05:42:03;0.87;;;0.37;;
28529;SDS011;15737;49.760;6.632;2022-12-18T05:44:28;1.27;;;1.03;;
28529;SDS011;15737;49.760;6.632;2022-12-18T05:46:54;1.90;;;1.50;;
28529;SDS011;15737;49.760;6.632;2022-12-18T05:51:59;1.73;;;1.27;;
28529;SDS011;15737;49.760;6.632;2022-12-18T05:54:26;2.00;;;1.80;;
28529;SDS011;15737;49.760;6.632;2022-12-18T05:56:53;0.30;;;0.30;;
28529;SDS011;15737;49.760;6.632;2022-12-18T05:59:18;0.87;;;0.87;;
28529;SDS011;15737;49.760;6.632;2022-12-18T06:01:44;0.80;;;0.63;;
28529;SDS011;15737;49.760;6.632;2022-12-18T06:04:10;7.60;;;2.23;;
28529;SDS011;15737;49.760;6.632;2022-12-18T06:06:35;1.83;;;1.27;;
28529;SDS011;15737;49.760;6.632;2022-12-18T06:09:01;0.63;;;0.63;;
28529;SDS011;15737;49.760;6.632;2022-12-18T06:11:33;0.10;;;0.10;;
28529;SDS011;15737;49.760;6.632;2022-12-18T06:13:59;3.20;;;0.50;;
28529;SDS011;15737;49.760;6.632;2022-12-18T06:18:51;1.03;;;1.03;;
28529;SDS011;15737;49.760;6.632;2022-12-18T06:21:17;0.37;;;0.37;;
28529;SDS011;15737;49.760;6.632;2022-12-18T06:23:43;0.47;;;0.47;;
28529;SDS011;15737;49.760;6.632;2022-12-18T06:26:09;3.67;;;1.30;;
28529;SDS011;15737;49.760;6.632;2022-12-18T06:30:15;1.67;;;1.57;;
28529;SDS011;15737;49.760;6.632;2022-12-18T06:36:20;1.13;;;1.13;;
28529;SDS011;15737;49.760;6.632;2022-12-18T06:38:46;1.00;;;0.87;;
28529;SDS011;15737;49.760;6.632;2022-12-18T06:41:19;4.63;;;1.97;;
28529;SDS011;15737;49.760;6.632;2022-12-18T06:44:12;1.50;;;0.87;;
28529;SDS011;15737;49.760;6.632;2022-12-18T06:46:38;0.70;;;0.70;;
28529;SDS011;15737;49.760;6.632;2022-12-18T06:49:06;2.27;;;1.43;;
28529;SDS011;15737;49.760;6.632;2022-12-18T06:51:41;2.83;;;1.50;;
28529;SDS011;15737;49.760;6.632;2022-12-18T06:54:15;0.00;;;0.00;;
28529;SDS011;15737;49.760;6.632;2022-12-18T06:56:46;1.30;;;1.23;;
28529;SDS011;15737;49.760;6.632;2022-12-18T06:59:15;0.47;;;0.47;;
28529;SDS011;15737;49.760;6.632;2022-12-18T07:01:40;1.47;;;1.30;;
28529;SDS011;15737;49.760;6.632;2022-12-18T07:04:06;2.10;;;1.50;;
28529;SDS011;15737;49.760;6.632;2022-12-18T07:07:09;0.40;;;0.37;;
28529;SDS011;15737;49.760;6.632;2022-12-18T07:09:38;0.23;;;0.23;;
28529;SDS011;15737;49.760;6.632;2022-12-18T07:12:03;0.20;;;0.20;;
28529;SDS011;15737;49.760;6.632;2022-12-18T07:14:29;1.70;;;1.50;;
28529;SDS011;15737;49.760;6.632;2022-12-18T07:16:55;0.83;;;0.83;;
28529;SDS011;15737;49.760;6.632;2022-12-18T07:19:20;1.50;;;1.40;;
28529;SDS011;15737;49.760;6.632;2022-12-18T07:21:46;0.73;;;0.73;;
28529;SDS011;15737;49.760;6.632;2022-12-18T07:24:11;0.67;;;0.67;;
28529;SDS011;15737;49.760;6.632;2022-12-18T07:26:37;1.33;;;0.90;;
28529;SDS011;15737;49.760;6.632;2022-12-18T07:29:03;0.97;;;0.87;;
28529;SDS011;15737;49.760;6.632;2022-12-18T07:31:28;0.00;;;0.00;;
28529;SDS011;15737;49.760;6.632;2022-12-18T07:33:55;1.80;;;1.43;;
28529;SDS011;15737;49.760;6.632;2022-12-18T07:36:27;1.60;;;1.50;;
28529;SDS011;15737;49.760;6.632;2022-12-18T07:38:52;2.43;;;0.97;;
28529;SDS011;15737;49.760;6.632;2022-12-18T07:41:18;0.27;;;0.27;;
28529;SDS011;15737;49.760;6.632;2022-12-18T07:43:44;1.47;;;0.87;;
28529;SDS011;15737;49.760;6.632;2022-12-18T07:46:10;0.27;;;0.27;;
28529;SDS011;15737;49.760;6.632;2022-12-18T07:48:38;1.10;;;1.10;;
28529;SDS011;15737;49.760;6.632;2022-12-18T07:51:05;0.60;;;0.60;;
28529;SDS011;15737;49.760;6.632;2022-12-18T07:53:32;5.23;;;1.90;;
28529;SDS011;15737;49.760;6.632;2022-12-18T07:55:59;0.50;;;0.50;;
28529;SDS011;15737;49.760;6.632;2022-12-18T07:58:26;1.80;;;0.67;;
28529;SDS011;15737;49.760;6.632;2022-12-18T08:00:54;1.17;;;1.07;;
28529;SDS011;15737;49.760;6.632;2022-12-18T08:03:33;2.97;;;2.67;;
28529;SDS011;15737;49.760;6.632;2022-12-18T08:06:03;5.27;;;3.00;;
28529;SDS011;15737;49.760;6.632;2022-12-18T08:08:30;3.67;;;2.63;;
28529;SDS011;15737;49.760;6.632;2022-12-18T08:10:56;5.10;;;3.80;;
28529;SDS011;15737;49.760;6.632;2022-12-18T08:13:22;6.07;;;3.63;;
28529;SDS011;15737;49.760;6.632;2022-12-18T08:15:55;4.90;;;3.70;;
28529;SDS011;15737;49.760;6.632;2022-12-18T08:18:34;4.70;;;2.70;;
28529;SDS011;15737;49.760;6.632;2022-12-18T08:21:08;5.47;;;2.10;;
28529;SDS011;15737;49.760;6.632;2022-12-18T08:23:34;5.47;;;3.10;;
28529;SDS011;15737;49.760;6.632;2022-12-18T08:26:00;3.70;;;3.17;;
28529;SDS011;15737;49.760;6.632;2022-12-18T08:28:26;4.50;;;2.57;;
28529;SDS011;15737;49.760;6.632;2022-12-18T08:33:22;3.93;;;2.60;;
28529;SDS011;15737;49.760;6.632;2022-12-18T08:35:47;5.93;;;2.97;;
28529;SDS011;15737;49.760;6.632;2022-12-18T08:38:13;5.07;;;2.37;;
28529;SDS011;15737;49.760;6.632;2022-12-18T08:40:38;7.37;;;2.63;;
28529;SDS011;15737;49.760;6.632;2022-12-18T08:43:04;3.07;;;1.93;;
28529;SDS011;15737;49.760;6.632;2022-12-18T08:48:20;6.50;;;3.07;;
28529;SDS011;15737;49.760;6.632;2022-12-18T08:50:55;9.87;;;4.40;;
28529;SDS011;15737;49.760;6.632;2022-12-18T08:53:25;8.37;;;4.60;;
28529;SDS011;15737;49.760;6.632;2022-12-18T08:55:52;7.60;;;5.27;;
28529;SDS011;15737;49.760;6.632;2022-12-18T08:58:18;7.90;;;4.23;;
28529;SDS011;15737;49.760;6.632;2022-12-18T09:03:19;9.60;;;5.63;;
28529;SDS011;15737;49.760;6.632;2022-12-18T09:05:47;13.00;;;6.63;;
28529;SDS011;15737;49.760;6.632;2022-12-18T09:08:13;18.07;;;8.27;;
28529;SDS011;15737;49.760;6.632;2022-12-18T09:10:45;13.00;;;6.50;;
28529;SDS011;15737;49.760;6.632;2022-12-18T09:13:12;13.57;;;7.47;;
28529;SDS011;15737;49.760;6.632;2022-12-18T09:18:16;13.73;;;7.13;;
28529;SDS011;15737;49.760;6.632;2022-12-18T09:20:43;12.40;;;7.60;;
28529;SDS011;15737;49.760;6.632;2022-12-18T09:23:09;14.07;;;7.10;;
28529;SDS011;15737;49.760;6.632;2022-12-18T09:25:36;16.83;;;7.23;;
28529;SDS011;15737;49.760;6.632;2022-12-18T09:28:03;15.17;;;7.73;;
28529;SDS011;15737;49.760;6.632;2022-12-18T09:33:11;16.17;;;7.23;;
28529;SDS011;15737;49.760;6.632;2022-12-18T09:35:38;14.23;;;6.73;;
28529;SDS011;15737;49.760;6.632;2022-12-18T09:38:04;14.67;;;5.80;;
28529;SDS011;15737;49.760;6.632;2022-12-18T09:40:33;12.13;;;5.60;;
28529;SDS011;15737;49.760;6.632;2022-12-18T09:46:17;10.70;;;7.03;;
28529;SDS011;15737;49.760;6.632;2022-12-18T09:48:56;13.57;;;6.17;;
28529;SDS011;15737;49.760;6.632;2022-12-18T09:51:26;11.07;;;5.83;;
28529;SDS011;15737;49.760;6.632;2022-12-18T09:56:38;16.10;;;8.47;;
28529;SDS011;15737;49.760;6.632;2022-12-18T09:59:09;9.87;;;5.67;;
28529;SDS011;15737;49.760;6.632;2022-12-18T10:02:17;12.07;;;5.97;;
28529;SDS011;15737;49.760;6.632;2022-12-18T10:04:48;12.20;;;6.33;;
28529;SDS011;15737;49.760;6.632;2022-12-18T10:07:22;9.87;;;4.93;;
28529;SDS011;15737;49.760;6.632;2022-12-18T10:10:14;17.77;;;6.43;;
28529;SDS011;15737;49.760;6.632;2022-12-18T10:13:00;14.40;;;6.37;;
28529;SDS011;15737;49.760;6.632;2022-12-18T10:15:59;8.80;;;5.20;;
28529;SDS011;15737;49.760;6.632;2022-12-18T10:21:09;17.00;;;7.20;;
28529;SDS011;15737;49.760;6.632;2022-12-18T10:23:54;13.37;;;6.30;;
28529;SDS011;15737;49.760;6.632;2022-12-18T10:26:40;13.30;;;7.07;;
28529;SDS011;15737;49.760;6.632;2022-12-18T10:29:11;13.23;;;7.53;;
28529;SDS011;15737;49.760;6.632;2022-12-18T10:31:38;13.77;;;6.57;;
28529;SDS011;15737;49.760;6.632;2022-12-18T10:34:03;13.87;;;7.07;;
28529;SDS011;15737;49.760;6.632;2022-12-18T10:45:15;13.63;;;7.40;;
28529;SDS011;15737;49.760;6.632;2022-12-18T10:47:56;13.43;;;6.93;;
28529;SDS011;15737;49.760;6.632;2022-12-18T10:50:28;16.67;;;7.47;;
28529;SDS011;15737;49.760;6.632;2022-12-18T10:52:57;14.43;;;6.57;;
28529;SDS011;15737;49.760;6.632;2022-12-18T11:01:04;14.67;;;6.37;;
28529;SDS011;15737;49.760;6.632;2022-12-18T11:03:42;13.80;;;5.37;;
28529;SDS011;15737;49.760;6.632;2022-12-18T11:09:00;15.47;;;6.80;;
28529;SDS011;15737;49.760;6.632;2022-12-18T11:11:28;11.33;;;5.87;;
28529;SDS011;15737;49.760;6.632;2022-12-18T11:13:58;15.33;;;6.73;;
28529;SDS011;15737;49.760;6.632;2022-12-18T11:16:37;13.13;;;7.20;;
28529;SDS011;15737;49.760;6.632;2022-12-18T11:19:11;11.70;;;5.60;;
28529;SDS011;15737;49.760;6.632;2022-12-18T11:21:56;12.67;;;6.80;;
28529;SDS011;15737;49.760;6.632;2022-12-18T11:24:30;10.27;;;4.70;;
28529;SDS011;15737;49.760;6.632;2022-12-18T11:26:59;12.67;;;7.57;;
28529;SDS011;15737;49.760;6.632;2022-12-18T11:29:34;14.37;;;6.47;;
28529;SDS011;15737;49.760;6.632;2022-12-18T11:38:45;11.37;;;6.93;;
28529;SDS011;15737;49.760;6.632;2022-12-18T11:43:25;15.10;;;8.13;;
28529;SDS011;15737;49.760;6.632;2022-12-18T11:46:14;16.60;;;8.67;;
28529;SDS011;15737;49.760;6.632;2022-12-18T11:48:52;16.63;;;8.37;;
28529;SDS011;15737;49.760;6.632;2022-12-18T11:51:28;12.67;;;6.70;;
28529;SDS011;15737;49.760;6.632;2022-12-18T11:56:44;14.90;;;7.53;;
28529;SDS011;15737;49.760;6.632;2022-12-18T11:59:24;10.90;;;5.67;;
28529;SDS011;15737;49.760;6.632;2022-12-18T12:02:03;14.80;;;7.50;;
28529;SDS011;15737;49.760;6.632;2022-12-18T12:08:14;16.27;;;6.50;;
28529;SDS011;15737;49.760;6.632;2022-12-18T12:10:53;15.97;;;6.90;;
28529;SDS011;15737;49.760;6.632;2022-12-18T12:13:48;11.80;;;6.27;;
28529;SDS011;15737;49.760;6.632;2022-12-18T12:16:28;14.23;;;6.17;;
28529;SDS011;15737;49.760;6.632;2022-12-18T12:19:07;7.73;;;5.23;;
28529;SDS011;15737;49.760;6.632;2022-12-18T12:22:05;9.80;;;5.23;;
28529;SDS011;15737;49.760;6.632;2022-12-18T12:24:54;8.80;;;5.43;;
28529;SDS011;15737;49.760;6.632;2022-12-18T12:28:03;10.90;;;5.60;;
28529;SDS011;15737;49.760;6.632;2022-12-18T12:30:48;11.37;;;5.63;;
28529;SDS011;15737;49.760;6.632;2022-12-18T12:33:46;6.07;;;3.77;;
28529;SDS011;15737;49.760;6.632;2022-12-18T12:39:47;11.17;;;6.17;;
28529;SDS011;15737;49.760;6.632;2022-12-18T12:42:18;12.00;;;5.00;;
28529;SDS011;15737;49.760;6.632;2022-12-18T12:45:33;13.93;;;7.07;;
28529;SDS011;15737;49.760;6.632;2022-12-18T12:48:07;11.15;;;5.85;;
28529;SDS011;15737;49.760;6.632;2022-12-18T12:50:41;15.10;;;7.10;;
28529;SDS011;15737;49.760;6.632;2022-12-18T12:53:07;12.67;;;7.10;;
28529;SDS011;15737;49.760;6.632;2022-12-18T12:55:47;20.43;;;8.37;;
28529;SDS011;15737;49.760;6.632;2022-12-18T13:01:04;14.40;;;8.07;;
28529;SDS011;15737;49.760;6.632;2022-12-18T13:03:54;10.40;;;5.00;;
28529;SDS011;15737;49.760;6.632;2022-12-18T13:06:46;9.13;;;6.43;;
28529;SDS011;15737;49.760;6.632;2022-12-18T13:09:13;8.93;;;4.93;;
28529;SDS011;15737;49.760;6.632;2022-12-18T13:11:39;10.53;;;5.67;;
28529;SDS011;15737;49.760;6.632;2022-12-18T13:17:25;16.47;;;7.43;;
28529;SDS011;15737;49.760;6.632;2022-12-18T13:20:06;15.13;;;8.40;;
28529;SDS011;15737;49.760;6.632;2022-12-18T13:22:38;14.27;;;6.80;;
28529;SDS011;15737;49.760;6.632;2022-12-18T13:27:57;13.53;;;6.77;;
28529;SDS011;15737;49.760;6.632;2022-12-18T13:40:57;11.37;;;6.60;;
28529;SDS011;15737;49.760;6.632;2022-12-18T13:43:27;14.67;;;6.63;;
28529;SDS011;15737;49.760;6.632;2022-12-18T13:46:18;17.90;;;6.27;;
28529;SDS011;15737;49.760;6.632;2022-12-18T13:48:49;10.53;;;5.23;;
28529;SDS011;15737;49.760;6.632;2022-12-18T13:51:24;14.90;;;6.00;;
28529;SDS011;15737;49.760;6.632;2022-12-18T13:53:53;9.10;;;6.13;;
28529;SDS011;15737;49.760;6.632;2022-12-18T13:56:24;11.80;;;5.23;;
28529;SDS011;15737;49.760;6.632;2022-12-18T14:04:23;20.03;;;4.80;;
28529;SDS011;15737;49.760;6.632;2022-12-18T14:06:55;13.80;;;6.47;;
28529;SDS011;15737;49.760;6.632;2022-12-18T14:09:24;13.50;;;6.10;;
28529;SDS011;15737;49.760;6.632;2022-12-18T14:11:55;8.97;;;6.00;;
28529;SDS011;15737;49.760;6.632;2022-12-18T14:17:12;11.13;;;5.97;;
28529;SDS011;15737;49.760;6.632;2022-12-18T14:19:45;12.77;;;5.53;;
28529;SDS011;15737;49.760;6.632;2022-12-18T14:22:14;11.40;;;5.47;;
28529;SDS011;15737;49.760;6.632;2022-12-18T14:25:05;10.40;;;5.37;;
28529;SDS011;15737;49.760;6.632;2022-12-18T14:27:37;14.47;;;6.37;;
28529;SDS011;15737;49.760;6.632;2022-12-18T14:33:04;9.17;;;5.00;;
28529;SDS011;15737;49.760;6.632;2022-12-18T14:43:37;8.10;;;3.97;;
28529;SDS011;15737;49.760;6.632;2022-12-18T14:49:02;11.33;;;5.27;;
28529;SDS011;15737;49.760;6.632;2022-12-18T14:51:50;12.00;;;6.00;;
28529;SDS011;15737;49.760;6.632;2022-12-18T14:54:18;9.83;;;4.47;;
28529;SDS011;15737;49.760;6.632;2022-12-18T14:57:00;13.30;;;4.60;;
28529;SDS011;15737;49.760;6.632;2022-12-18T14:59:38;10.03;;;4.63;;
28529;SDS011;15737;49.760;6.632;2022-12-18T15:02:13;8.73;;;6.03;;
28529;SDS011;15737;49.760;6.632;2022-12-18T15:07:44;7.23;;;4.47;;
28529;SDS011;15737;49.760;6.632;2022-12-18T15:10:13;12.63;;;5.13;;
28529;SDS011;15737;49.760;6.632;2022-12-18T15:12:46;12.57;;;6.43;;
28529;SDS011;15737;49.760;6.632;2022-12-18T15:20:41;7.70;;;3.57;;
28529;SDS011;15737;49.760;6.632;2022-12-18T15:25:57;7.67;;;4.70;;
28529;SDS011;15737;49.760;6.632;2022-12-18T15:28:35;6.03;;;3.70;;
28529;SDS011;15737;49.760;6.632;2022-12-18T15:33:32;9.23;;;5.13;;
28529;SDS011;15737;49.760;6.632;2022-12-18T15:36:00;13.23;;;5.90;;
28529;SDS011;15737;49.760;6.632;2022-12-18T15:38:33;8.03;;;4.70;;
28529;SDS011;15737;49.760;6.632;2022-12-18T15:46:24;11.23;;;5.00;;
28529;SDS011;15737;49.760;6.632;2022-12-18T15:48:52;11.13;;;5.80;;
28529;SDS011;15737;49.760;6.632;2022-12-18T15:51:22;11.13;;;5.73;;
28529;SDS011;15737;49.760;6.632;2022-12-18T15:53:49;7.43;;;4.47;;
28529;SDS011;15737;49.760;6.632;2022-12-18T15:58:52;10.63;;;4.90;;
28529;SDS011;15737;49.760;6.632;2022-12-18T16:01:18;10.23;;;5.23;;
28529;SDS011;15737;49.760;6.632;2022-12-18T16:03:44;13.10;;;6.50;;
28529;SDS011;15737;49.760;6.632;2022-12-18T16:06:09;9.57;;;4.37;;
28529;SDS011;15737;49.760;6.632;2022-12-18T16:08:35;9.37;;;5.67;;
28529;SDS011;15737;49.760;6.632;2022-12-18T16:11:01;10.27;;;3.37;;
28529;SDS011;15737;49.760;6.632;2022-12-18T16:13:26;6.03;;;3.80;;
28529;SDS011;15737;49.760;6.632;2022-12-18T16:15:52;4.83;;;3.30;;
28529;SDS011;15737;49.760;6.632;2022-12-18T16:18:17;6.23;;;3.40;;
28529;SDS011;15737;49.760;6.632;2022-12-18T16:20:43;6.40;;;4.60;;
28529;SDS011;15737;49.760;6.632;2022-12-18T16:25:44;11.37;;;4.87;;
28529;SDS011;15737;49.760;6.632;2022-12-18T16:28:09;8.13;;;3.93;;
28529;SDS011;15737;49.760;6.632;2022-12-18T16:30:35;7.70;;;3.40;;
28529;SDS011;15737;49.760;6.632;2022-12-18T16:33:00;4.00;;;3.60;;
28529;SDS011;15737;49.760;6.632;2022-12-18T16:35:26;9.83;;;5.23;;
28529;SDS011;15737;49.760;6.632;2022-12-18T16:37:52;5.00;;;4.43;;
28529;SDS011;15737;49.760;6.632;2022-12-18T16:40:17;8.93;;;3.93;;
28529;SDS011;15737;49.760;6.632;2022-12-18T16:42:43;10.57;;;4.23;;
28529;SDS011;15737;49.760;6.632;2022-12-18T16:45:11;9.00;;;4.80;;
28529;SDS011;15737;49.760;6.632;2022-12-18T16:47:38;6.90;;;3.87;;
28529;SDS011;15737;49.760;6.632;2022-12-18T16:50:04;6.33;;;4.30;;
28529;SDS011;15737;49.760;6.632;2022-12-18T16:52:31;6.57;;;3.67;;
28529;SDS011;15737;49.760;6.632;2022-12-18T16:54:56;3.83;;;3.30;;
28529;SDS011;15737;49.760;6.632;2022-12-18T16:57:22;5.13;;;3.60;;
28529;SDS011;15737;49.760;6.632;2022-12-18T16:59:48;5.10;;;3.17;;
28529;SDS011;15737;49.760;6.632;2022-12-18T17:02:24;6.60;;;4.17;;
28529;SDS011;15737;49.760;6.632;2022-12-18T17:04:56;10.33;;;5.83;;
28529;SDS011;15737;49.760;6.632;2022-12-18T17:07:22;7.20;;;4.10;;
28529;SDS011;15737;49.760;6.632;2022-12-18T17:09:48;8.30;;;4.53;;
28529;SDS011;15737;49.760;6.632;2022-12-18T17:12:15;6.93;;;4.73;;
28529;SDS011;15737;49.760;6.632;2022-12-18T17:14:40;8.20;;;4.07;;
28529;SDS011;15737;49.760;6.632;2022-12-18T17:17:06;7.37;;;4.20;;
28529;SDS011;15737;49.760;6.632;2022-12-18T17:19:31;9.27;;;5.27;;
28529;SDS011;15737;49.760;6.632;2022-12-18T17:21:57;8.23;;;4.63;;
28529;SDS011;15737;49.760;6.632;2022-12-18T17:24:23;9.63;;;4.53;;
28529;SDS011;15737;49.760;6.632;2022-12-18T17:26:48;10.83;;;5.70;;
28529;SDS011;15737;49.760;6.632;2022-12-18T17:29:15;9.83;;;4.37;;
28529;SDS011;15737;49.760;6.632;2022-12-18T17:31:43;8.73;;;5.33;;
28529;SDS011;15737;49.760;6.632;2022-12-18T17:34:10;13.77;;;5.27;;
28529;SDS011;15737;49.760;6.632;2022-12-18T17:36:36;8.27;;;3.80;;
28529;SDS011;15737;49.760;6.632;2022-12-18T17:39:03;11.13;;;5.93;;
28529;SDS011;15737;49.760;6.632;2022-12-18T17:41:30;7.83;;;4.43;;
28529;SDS011;15737;49.760;6.632;2022-12-18T17:46:27;9.77;;;5.23;;
28529;SDS011;15737;49.760;6.632;2022-12-18T17:48:57;13.07;;;5.23;;
28529;SDS011;15737;49.760;6.632;2022-12-18T17:51:23;7.93;;;4.37;;
28529;SDS011;15737;49.760;6.632;2022-12-18T17:53:49;14.63;;;6.10;;
28529;SDS011;15737;49.760;6.632;2022-12-18T17:56:16;11.00;;;5.67;;
28529;SDS011;15737;49.760;6.632;2022-12-18T18:01:23;14.13;;;6.17;;
28529;SDS011;15737;49.760;6.632;2022-12-18T18:03:50;11.87;;;6.27;;
28529;SDS011;15737;49.760;6.632;2022-12-18T18:06:16;11.17;;;4.77;;